WEATHER

Warnervale Skycam

North West View

North West View

South West View

South West View

Sydney Airport Forecast

  • YSSY TAF

    TAF YSSY 192321Z 2000/2106 03014KT 9999 SCT025 FM200300 03020G30KT 9999 FEW035 FM201000 01014KT 9999 SCT025 FM202300 01014KT CAVOK FM210300 03020G30KT CAVOK RMK FM200300 MOD TURB BLW 5000FT T 20 20 20 19 Q 1026 1024 1022 1023

  • YSSY METAR

    TTF METAR YSSY 200400Z 05017KT 9999 FEW017 SCT022 22/15 Q1023 RMK RF00.0/000.0 NOSIG

All information provided on this page is for general information and should NOT be used for flight planning.